Observations for CARDIFF-WALES ARPT, United Kingdom (EGFF)

EGFF 180250Z AUTO 11008KT 6000 -RA OVC010 06/05 Q1020   
EGFF 180220Z AUTO 12009KT 6000 -RA OVC011 06/05 Q1020   
EGFF 180150Z AUTO 11007KT 7000 BKN011 OVC016 06/06 Q1020
EGFF 180120Z AUTO 12006KT 9000 BKN018 OVC027 06/05 Q1021
EGFF 180050Z AUTO 11006KT 9999 BKN032 OVC039 06/05 Q1021
EGFF 180020Z AUTO 11005KT 9999 BKN039 BKN045 05/04 Q1021
EGFF 172350Z AUTO 11006KT 9999 BKN045 05/05 Q1021   
EGFF 172320Z AUTO 11006KT 9999 NCD 06/05 Q1021  
EGFF 172250Z AUTO 12006KT 9999 NCD 05/04 Q1021  
EGFF 172220Z AUTO 12006KT 9999 NCD 06/04 Q1021  
EGFF 172150Z AUTO 16006KT 9999 NCD 06/05 Q1021  
EGFF 172120Z AUTO 11004KT 080V160 9999 SCT026 06/05 Q1021   
EGFF 172050Z AUTO 14006KT 9999 FEW026 06/05 Q1021   
EGFF 172020Z AUTO 12006KT 9999 FEW030 SCT044 06/05 Q1021
EGFF 171950Z AUTO 10005KT 9999 BKN040 06/05 Q1021   
EGFF 171920Z AUTO 13004KT 9999 BKN037 BKN047 06/05 Q1021
EGFF 171850Z AUTO 15004KT 9999 NCD 06/05 Q1021  
EGFF 171820Z AUTO 20003KT 9999 NCD 06/04 Q1021  
EGFF 171750Z AUTO 28004KT 9999 NCD 07/04 Q1021  
EGFF 171720Z AUTO 28005KT 9999 NCD 07/04 Q1021  
EGFF 171650Z AUTO 29007KT 9999 NCD 08/04 Q1021  
EGFF 171620Z AUTO 28007KT 9999 NCD 09/05 Q1021  
EGFF 171550Z AUTO 29008KT 9999 NCD 08/05 Q1021  
EGFF 171520Z AUTO 28007KT 9999 NCD 08/04 Q1021  
EGFF 171450Z AUTO 28009KT 9999 SCT013 09/06 Q1021   
EGFF 171420Z AUTO 27008KT 9999 SCT013 09/07 Q1021   
EGFF 171350Z AUTO 25007KT 220V280 9999 SCT035 09/06 Q1021   
EGFF 171320Z AUTO 24006KT 200V300 9999 SCT039 09/06 Q1021   
EGFF 171250Z 25007KT 220V280 9999 SCT014 09/07 Q1022
EGFF 171220Z AUTO 33004KT 300V010 9999 SCT009 BKN014 OVC024 09/07 Q1022 
EGFF 171150Z 26009KT 9999 SCT012 08/06 Q1022
EGFF 171120Z AUTO 25008KT 9999 FEW012 BKN017 08/07 Q1021
EGFF 171050Z AUTO 25006KT 9999 FEW009 BKN013 OVC032 07/06 Q1021 
EGFF 171020Z AUTO VRB02KT 9999 OVC008 06/05 Q1021 RERA  
EGFF 170950Z AUTO 19005KT 3200 RA BKN013 OVC020 06/05 Q1021 
EGFF 170920Z AUTO 16004KT 120V200 5000 -RA FEW014/// BKN020/// BKN024/// //////TCU 06/05 Q1021  
EGFF 170850Z AUTO VRB03KT 4300 -RA SCT022 BKN028 BKN034 05/05 Q1020 RERA
EGFF 170820Z AUTO 12005KT 8000 -RA SCT032/// BKN039/// //////TCU 05/04 Q1020
EGFF 170750Z AUTO 12006KT 9999 -RA SCT038/// BKN049/// //////TCU 04/04 Q1020
EGFF 170720Z AUTO 11006KT 9999 OVC047 04/04 Q1020   
EGFF 170650Z AUTO 12007KT 9999 OVC047 04/04 Q1020   
EGFF 170620Z AUTO 13007KT 9999 SCT034 SCT045 04/04 Q1020
EGFF 170550Z AUTO 12006KT 9999 OVC033 04/04 Q1019   
EGFF 170520Z AUTO 11007KT 9999 FEW039 SCT048 04/04 Q1019
EGFF 170450Z AUTO 11006KT 9999 FEW041 OVC048 03/03 Q1019
EGFF 170420Z AUTO 13007KT 9999 SCT044 03/03 Q1020   
EGFF 170350Z AUTO 12007KT 9999 BKN045 03/02 Q1020   
EGFF 170320Z AUTO 10006KT 9999 NCD 03/02 Q1020  
EGFF 170250Z AUTO 11006KT 9999 NCD 03/03 Q1020  
EGFF 170220Z AUTO 10005KT 9999 NCD 04/03 Q1020